sensor_id;sensor_type;location;lat;lon;timestamp;pressure;altitude;pressure_sealevel;temperature
15607;BMP180;7865;50.918;4.510;2023-05-07T00:00:06;101050.00;;;15.20
15607;BMP180;7865;50.918;4.510;2023-05-07T00:05:11;101046.00;;;15.30
15607;BMP180;7865;50.918;4.510;2023-05-07T00:10:13;101050.00;;;15.30
15607;BMP180;7865;50.918;4.510;2023-05-07T00:15:14;101039.00;;;15.30
15607;BMP180;7865;50.918;4.510;2023-05-07T00:20:16;101045.00;;;15.30
15607;BMP180;7865;50.918;4.510;2023-05-07T00:25:18;101037.00;;;15.30
15607;BMP180;7865;50.918;4.510;2023-05-07T00:30:21;101036.00;;;15.30
15607;BMP180;7865;50.918;4.510;2023-05-07T00:35:22;101023.00;;;15.30
15607;BMP180;7865;50.918;4.510;2023-05-07T00:40:24;101013.00;;;15.30
15607;BMP180;7865;50.918;4.510;2023-05-07T00:45:29;101011.00;;;15.20
15607;BMP180;7865;50.918;4.510;2023-05-07T00:50:31;101015.00;;;15.20
15607;BMP180;7865;50.918;4.510;2023-05-07T00:55:33;101004.00;;;15.10
15607;BMP180;7865;50.918;4.510;2023-05-07T01:00:36;101010.00;;;15.10
15607;BMP180;7865;50.918;4.510;2023-05-07T01:05:38;101013.00;;;15.00
15607;BMP180;7865;50.918;4.510;2023-05-07T01:10:40;101001.00;;;15.00
15607;BMP180;7865;50.918;4.510;2023-05-07T01:15:43;100992.00;;;14.90
15607;BMP180;7865;50.918;4.510;2023-05-07T01:20:45;100993.00;;;14.90
15607;BMP180;7865;50.918;4.510;2023-05-07T01:25:54;100989.00;;;14.90
15607;BMP180;7865;50.918;4.510;2023-05-07T01:31:02;100992.00;;;14.80
15607;BMP180;7865;50.918;4.510;2023-05-07T01:36:06;100994.00;;;14.80
15607;BMP180;7865;50.918;4.510;2023-05-07T01:41:08;100995.00;;;14.70
15607;BMP180;7865;50.918;4.510;2023-05-07T01:46:10;100998.00;;;14.70
15607;BMP180;7865;50.918;4.510;2023-05-07T01:51:13;100990.00;;;14.70
15607;BMP180;7865;50.918;4.510;2023-05-07T01:56:14;100994.00;;;14.60
15607;BMP180;7865;50.918;4.510;2023-05-07T02:01:17;101000.00;;;14.60
15607;BMP180;7865;50.918;4.510;2023-05-07T02:06:19;101002.00;;;14.60
15607;BMP180;7865;50.918;4.510;2023-05-07T02:11:21;101002.00;;;14.60
15607;BMP180;7865;50.918;4.510;2023-05-07T02:16:22;101005.00;;;14.60
15607;BMP180;7865;50.918;4.510;2023-05-07T02:21:26;101003.00;;;14.60
15607;BMP180;7865;50.918;4.510;2023-05-07T02:26:28;100999.00;;;14.60
15607;BMP180;7865;50.918;4.510;2023-05-07T02:31:30;101002.00;;;14.50
15607;BMP180;7865;50.918;4.510;2023-05-07T02:36:32;101003.00;;;14.50
15607;BMP180;7865;50.918;4.510;2023-05-07T02:41:41;101002.00;;;14.40
15607;BMP180;7865;50.918;4.510;2023-05-07T02:46:42;100990.00;;;14.30
15607;BMP180;7865;50.918;4.510;2023-05-07T02:51:46;100989.00;;;14.20
15607;BMP180;7865;50.918;4.510;2023-05-07T02:56:54;101007.00;;;14.00
15607;BMP180;7865;50.918;4.510;2023-05-07T03:01:55;101012.00;;;14.00
15607;BMP180;7865;50.918;4.510;2023-05-07T03:06:57;101008.00;;;14.00
15607;BMP180;7865;50.918;4.510;2023-05-07T03:11:58;101004.00;;;14.00
15607;BMP180;7865;50.918;4.510;2023-05-07T03:17:00;101004.00;;;14.10
15607;BMP180;7865;50.918;4.510;2023-05-07T03:22:01;101001.00;;;14.10
15607;BMP180;7865;50.918;4.510;2023-05-07T03:27:03;100993.00;;;14.10
15607;BMP180;7865;50.918;4.510;2023-05-07T03:32:04;101008.00;;;14.10
15607;BMP180;7865;50.918;4.510;2023-05-07T03:37:07;101000.00;;;14.10
15607;BMP180;7865;50.918;4.510;2023-05-07T03:42:08;101004.00;;;14.10
15607;BMP180;7865;50.918;4.510;2023-05-07T03:47:10;101000.00;;;14.10
15607;BMP180;7865;50.918;4.510;2023-05-07T03:52:13;101005.00;;;14.10
15607;BMP180;7865;50.918;4.510;2023-05-07T03:57:15;100998.00;;;14.20
15607;BMP180;7865;50.918;4.510;2023-05-07T04:02:16;101007.00;;;14.20
15607;BMP180;7865;50.918;4.510;2023-05-07T04:07:18;101009.00;;;14.20
15607;BMP180;7865;50.918;4.510;2023-05-07T04:12:23;101001.00;;;14.20
15607;BMP180;7865;50.918;4.510;2023-05-07T04:17:26;100996.00;;;14.10
15607;BMP180;7865;50.918;4.510;2023-05-07T04:22:27;100992.00;;;14.10
15607;BMP180;7865;50.918;4.510;2023-05-07T04:27:29;100988.00;;;14.10
15607;BMP180;7865;50.918;4.510;2023-05-07T04:32:30;100983.00;;;14.20
15607;BMP180;7865;50.918;4.510;2023-05-07T04:37:32;100977.00;;;14.30
15607;BMP180;7865;50.918;4.510;2023-05-07T04:42:35;100980.00;;;14.30
15607;BMP180;7865;50.918;4.510;2023-05-07T04:47:38;100985.00;;;14.40
15607;BMP180;7865;50.918;4.510;2023-05-07T04:52:39;100980.00;;;14.50
15607;BMP180;7865;50.918;4.510;2023-05-07T04:57:41;100989.00;;;14.60
15607;BMP180;7865;50.918;4.510;2023-05-07T05:02:45;100999.00;;;14.70
15607;BMP180;7865;50.918;4.510;2023-05-07T05:07:51;100996.00;;;14.80
15607;BMP180;7865;50.918;4.510;2023-05-07T05:12:53;101002.00;;;15.00
15607;BMP180;7865;50.918;4.510;2023-05-07T05:17:56;101004.00;;;15.20
15607;BMP180;7865;50.918;4.510;2023-05-07T05:22:58;101002.00;;;15.40
15607;BMP180;7865;50.918;4.510;2023-05-07T05:28:00;101010.00;;;15.60
15607;BMP180;7865;50.918;4.510;2023-05-07T05:33:03;101009.00;;;15.80
15607;BMP180;7865;50.918;4.510;2023-05-07T05:38:04;101015.00;;;15.90
15607;BMP180;7865;50.918;4.510;2023-05-07T05:43:07;101019.00;;;15.90
15607;BMP180;7865;50.918;4.510;2023-05-07T05:48:11;101031.00;;;15.90
15607;BMP180;7865;50.918;4.510;2023-05-07T05:53:13;101025.00;;;15.90
15607;BMP180;7865;50.918;4.510;2023-05-07T05:58:14;101028.00;;;15.90
15607;BMP180;7865;50.918;4.510;2023-05-07T06:03:22;101023.00;;;16.00
15607;BMP180;7865;50.918;4.510;2023-05-07T06:08:24;101031.00;;;16.10
15607;BMP180;7865;50.918;4.510;2023-05-07T06:13:25;101034.00;;;16.20
15607;BMP180;7865;50.918;4.510;2023-05-07T06:18:28;101052.00;;;16.10
15607;BMP180;7865;50.918;4.510;2023-05-07T06:23:29;101066.00;;;16.00
15607;BMP180;7865;50.918;4.510;2023-05-07T06:28:31;101061.00;;;16.00
15607;BMP180;7865;50.918;4.510;2023-05-07T06:33:39;101067.00;;;16.10
15607;BMP180;7865;50.918;4.510;2023-05-07T06:38:41;101073.00;;;16.30
15607;BMP180;7865;50.918;4.510;2023-05-07T06:43:43;101077.00;;;16.50
15607;BMP180;7865;50.918;4.510;2023-05-07T06:49:02;101069.00;;;16.70
15607;BMP180;7865;50.918;4.510;2023-05-07T06:54:04;101074.00;;;17.00
15607;BMP180;7865;50.918;4.510;2023-05-07T06:59:07;101078.00;;;17.40
15607;BMP180;7865;50.918;4.510;2023-05-07T07:04:13;101074.00;;;17.50
15607;BMP180;7865;50.918;4.510;2023-05-07T07:09:17;101082.00;;;17.60
15607;BMP180;7865;50.918;4.510;2023-05-07T07:14:18;101079.00;;;17.60
15607;BMP180;7865;50.918;4.510;2023-05-07T07:19:24;101071.00;;;17.60
15607;BMP180;7865;50.918;4.510;2023-05-07T07:24:28;101077.00;;;17.60
15607;BMP180;7865;50.918;4.510;2023-05-07T07:29:33;101071.00;;;17.50
15607;BMP180;7865;50.918;4.510;2023-05-07T07:34:35;101081.00;;;17.30
15607;BMP180;7865;50.918;4.510;2023-05-07T07:39:37;101081.00;;;17.10
15607;BMP180;7865;50.918;4.510;2023-05-07T07:44:40;101076.00;;;17.00
15607;BMP180;7865;50.918;4.510;2023-05-07T07:49:44;101090.00;;;16.70
15607;BMP180;7865;50.918;4.510;2023-05-07T07:54:45;101102.00;;;16.80
15607;BMP180;7865;50.918;4.510;2023-05-07T07:59:47;101100.00;;;17.20
15607;BMP180;7865;50.918;4.510;2023-05-07T08:04:50;101107.00;;;17.50
15607;BMP180;7865;50.918;4.510;2023-05-07T08:09:52;101101.00;;;17.40
15607;BMP180;7865;50.918;4.510;2023-05-07T08:14:57;101116.00;;;17.40
15607;BMP180;7865;50.918;4.510;2023-05-07T08:19:58;101114.00;;;17.50
15607;BMP180;7865;50.918;4.510;2023-05-07T08:25:00;101120.00;;;17.60
15607;BMP180;7865;50.918;4.510;2023-05-07T08:30:03;101120.00;;;17.70
15607;BMP180;7865;50.918;4.510;2023-05-07T08:35:05;101129.00;;;17.70
15607;BMP180;7865;50.918;4.510;2023-05-07T08:40:07;101135.00;;;17.50
15607;BMP180;7865;50.918;4.510;2023-05-07T08:45:13;101149.00;;;17.20
15607;BMP180;7865;50.918;4.510;2023-05-07T08:50:20;101157.00;;;17.00
15607;BMP180;7865;50.918;4.510;2023-05-07T08:55:23;101157.00;;;16.90
15607;BMP180;7865;50.918;4.510;2023-05-07T09:00:25;101161.00;;;16.90
15607;BMP180;7865;50.918;4.510;2023-05-07T09:05:29;101161.00;;;17.10
15607;BMP180;7865;50.918;4.510;2023-05-07T09:10:33;101170.00;;;17.00
15607;BMP180;7865;50.918;4.510;2023-05-07T09:15:35;101173.00;;;17.00
15607;BMP180;7865;50.918;4.510;2023-05-07T09:20:37;101173.00;;;17.30
15607;BMP180;7865;50.918;4.510;2023-05-07T09:25:40;101170.00;;;17.50
15607;BMP180;7865;50.918;4.510;2023-05-07T09:30:49;101170.00;;;17.50
15607;BMP180;7865;50.918;4.510;2023-05-07T09:35:51;101171.00;;;17.60
15607;BMP180;7865;50.918;4.510;2023-05-07T09:41:07;101180.00;;;17.80
15607;BMP180;7865;50.918;4.510;2023-05-07T09:46:17;101174.00;;;18.10
15607;BMP180;7865;50.918;4.510;2023-05-07T09:51:51;101175.00;;;18.30
15607;BMP180;7865;50.918;4.510;2023-05-07T09:56:53;101180.00;;;18.50
15607;BMP180;7865;50.918;4.510;2023-05-07T10:01:59;101186.00;;;18.50
15607;BMP180;7865;50.918;4.510;2023-05-07T10:07:05;101194.00;;;18.50
15607;BMP180;7865;50.918;4.510;2023-05-07T10:12:07;101204.00;;;18.40
15607;BMP180;7865;50.918;4.510;2023-05-07T10:17:11;101204.00;;;18.20
15607;BMP180;7865;50.918;4.510;2023-05-07T10:22:16;101202.00;;;18.10
15607;BMP180;7865;50.918;4.510;2023-05-07T10:27:21;101207.00;;;18.30
15607;BMP180;7865;50.918;4.510;2023-05-07T10:32:42;101205.00;;;18.50
15607;BMP180;7865;50.918;4.510;2023-05-07T10:37:49;101207.00;;;18.60
15607;BMP180;7865;50.918;4.510;2023-05-07T10:43:01;101206.00;;;18.60
15607;BMP180;7865;50.918;4.510;2023-05-07T10:48:14;101212.00;;;18.50
15607;BMP180;7865;50.918;4.510;2023-05-07T10:53:25;101218.00;;;18.70
15607;BMP180;7865;50.918;4.510;2023-05-07T10:58:43;101217.00;;;18.80
15607;BMP180;7865;50.918;4.510;2023-05-07T11:04:28;101214.00;;;19.00
15607;BMP180;7865;50.918;4.510;2023-05-07T11:10:02;101206.00;;;19.10
15607;BMP180;7865;50.918;4.510;2023-05-07T11:15:13;101207.00;;;19.30
15607;BMP180;7865;50.918;4.510;2023-05-07T11:20:18;101213.00;;;19.10
15607;BMP180;7865;50.918;4.510;2023-05-07T11:25:26;101203.00;;;19.10
15607;BMP180;7865;50.918;4.510;2023-05-07T11:30:34;101207.00;;;19.20
15607;BMP180;7865;50.918;4.510;2023-05-07T11:35:36;101203.00;;;19.30
15607;BMP180;7865;50.918;4.510;2023-05-07T11:40:56;101200.00;;;19.50
15607;BMP180;7865;50.918;4.510;2023-05-07T11:46:11;101205.00;;;19.70
15607;BMP180;7865;50.918;4.510;2023-05-07T11:51:13;101209.00;;;19.60
15607;BMP180;7865;50.918;4.510;2023-05-07T11:56:19;101212.00;;;19.80
15607;BMP180;7865;50.918;4.510;2023-05-07T12:01:21;101211.00;;;20.10
15607;BMP180;7865;50.918;4.510;2023-05-07T12:06:23;101207.00;;;20.30
15607;BMP180;7865;50.918;4.510;2023-05-07T12:11:25;101199.00;;;20.40
15607;BMP180;7865;50.918;4.510;2023-05-07T12:16:27;101204.00;;;20.80
15607;BMP180;7865;50.918;4.510;2023-05-07T12:21:29;101207.00;;;21.10
15607;BMP180;7865;50.918;4.510;2023-05-07T12:26:30;101198.00;;;21.20
15607;BMP180;7865;50.918;4.510;2023-05-07T12:31:32;101195.00;;;21.10
15607;BMP180;7865;50.918;4.510;2023-05-07T12:36:38;101202.00;;;21.40
15607;BMP180;7865;50.918;4.510;2023-05-07T12:41:54;101206.00;;;21.70
15607;BMP180;7865;50.918;4.510;2023-05-07T12:46:56;101203.00;;;21.90
15607;BMP180;7865;50.918;4.510;2023-05-07T12:51:58;101207.00;;;21.90
15607;BMP180;7865;50.918;4.510;2023-05-07T12:57:04;101215.00;;;21.10
15607;BMP180;7865;50.918;4.510;2023-05-07T13:02:07;101219.00;;;21.10
15607;BMP180;7865;50.918;4.510;2023-05-07T13:07:11;101220.00;;;20.90
15607;BMP180;7865;50.918;4.510;2023-05-07T13:12:13;101230.00;;;20.50
15607;BMP180;7865;50.918;4.510;2023-05-07T13:17:14;101231.00;;;20.50
15607;BMP180;7865;50.918;4.510;2023-05-07T13:22:16;101236.00;;;20.40
15607;BMP180;7865;50.918;4.510;2023-05-07T13:27:17;101239.00;;;20.40
15607;BMP180;7865;50.918;4.510;2023-05-07T13:32:20;101236.00;;;20.60
15607;BMP180;7865;50.918;4.510;2023-05-07T13:37:21;101233.00;;;20.90
15607;BMP180;7865;50.918;4.510;2023-05-07T13:42:23;101232.00;;;20.90
15607;BMP180;7865;50.918;4.510;2023-05-07T13:47:24;101230.00;;;20.60
15607;BMP180;7865;50.918;4.510;2023-05-07T13:52:25;101235.00;;;20.70
15607;BMP180;7865;50.918;4.510;2023-05-07T13:57:27;101234.00;;;20.60
15607;BMP180;7865;50.918;4.510;2023-05-07T14:02:28;101242.00;;;20.40
15607;BMP180;7865;50.918;4.510;2023-05-07T14:07:30;101246.00;;;20.40
15607;BMP180;7865;50.918;4.510;2023-05-07T14:12:32;101246.00;;;20.40
15607;BMP180;7865;50.918;4.510;2023-05-07T14:17:34;101246.00;;;20.40
15607;BMP180;7865;50.918;4.510;2023-05-07T14:22:35;101251.00;;;20.50
15607;BMP180;7865;50.918;4.510;2023-05-07T14:27:37;101259.00;;;20.50
15607;BMP180;7865;50.918;4.510;2023-05-07T14:32:39;101257.00;;;20.90
15607;BMP180;7865;50.918;4.510;2023-05-07T14:37:40;101242.00;;;20.90
15607;BMP180;7865;50.918;4.510;2023-05-07T14:42:42;101244.00;;;20.80
15607;BMP180;7865;50.918;4.510;2023-05-07T14:47:43;101246.00;;;20.80
15607;BMP180;7865;50.918;4.510;2023-05-07T14:52:44;101242.00;;;20.80
15607;BMP180;7865;50.918;4.510;2023-05-07T14:57:45;101247.00;;;20.60
15607;BMP180;7865;50.918;4.510;2023-05-07T15:02:47;101256.00;;;20.70
15607;BMP180;7865;50.918;4.510;2023-05-07T15:07:48;101249.00;;;20.60
15607;BMP180;7865;50.918;4.510;2023-05-07T15:12:50;101254.00;;;20.70
15607;BMP180;7865;50.918;4.510;2023-05-07T15:17:51;101261.00;;;20.60
15607;BMP180;7865;50.918;4.510;2023-05-07T15:22:53;101265.00;;;20.50
15607;BMP180;7865;50.918;4.510;2023-05-07T15:27:55;101262.00;;;20.50
15607;BMP180;7865;50.918;4.510;2023-05-07T15:32:56;101253.00;;;20.50
15607;BMP180;7865;50.918;4.510;2023-05-07T15:37:58;101245.00;;;20.40
15607;BMP180;7865;50.918;4.510;2023-05-07T15:43:00;101253.00;;;20.30
15607;BMP180;7865;50.918;4.510;2023-05-07T15:48:01;101255.00;;;20.20
15607;BMP180;7865;50.918;4.510;2023-05-07T15:53:03;101263.00;;;20.00
15607;BMP180;7865;50.918;4.510;2023-05-07T15:58:05;101277.00;;;19.80
15607;BMP180;7865;50.918;4.510;2023-05-07T16:03:07;101273.00;;;19.50
15607;BMP180;7865;50.918;4.510;2023-05-07T16:08:08;101279.00;;;19.30
15607;BMP180;7865;50.918;4.510;2023-05-07T16:13:10;101285.00;;;19.30
15607;BMP180;7865;50.918;4.510;2023-05-07T16:18:11;101286.00;;;19.10
15607;BMP180;7865;50.918;4.510;2023-05-07T16:23:16;101298.00;;;19.00
15607;BMP180;7865;50.918;4.510;2023-05-07T16:28:18;101292.00;;;19.00
15607;BMP180;7865;50.918;4.510;2023-05-07T16:33:19;101291.00;;;18.90
15607;BMP180;7865;50.918;4.510;2023-05-07T16:38:21;101290.00;;;18.90
15607;BMP180;7865;50.918;4.510;2023-05-07T16:43:22;101299.00;;;18.80
15607;BMP180;7865;50.918;4.510;2023-05-07T16:48:24;101299.00;;;18.80
15607;BMP180;7865;50.918;4.510;2023-05-07T16:53:25;101299.00;;;18.80
15607;BMP180;7865;50.918;4.510;2023-05-07T16:58:27;101293.00;;;18.80
15607;BMP180;7865;50.918;4.510;2023-05-07T17:03:28;101286.00;;;18.80
15607;BMP180;7865;50.918;4.510;2023-05-07T17:08:32;101292.00;;;18.80
15607;BMP180;7865;50.918;4.510;2023-05-07T17:13:33;101293.00;;;18.70
15607;BMP180;7865;50.918;4.510;2023-05-07T17:18:34;101293.00;;;18.70
15607;BMP180;7865;50.918;4.510;2023-05-07T17:23:36;101301.00;;;18.70
15607;BMP180;7865;50.918;4.510;2023-05-07T17:28:38;101296.00;;;18.90
15607;BMP180;7865;50.918;4.510;2023-05-07T17:33:39;101306.00;;;19.00
15607;BMP180;7865;50.918;4.510;2023-05-07T17:38:41;101300.00;;;18.90
15607;BMP180;7865;50.918;4.510;2023-05-07T17:43:42;101308.00;;;19.00
15607;BMP180;7865;50.918;4.510;2023-05-07T17:48:44;101307.00;;;18.90
15607;BMP180;7865;50.918;4.510;2023-05-07T17:53:45;101308.00;;;18.80
15607;BMP180;7865;50.918;4.510;2023-05-07T17:58:46;101308.00;;;18.70
15607;BMP180;7865;50.918;4.510;2023-05-07T18:04:01;101318.00;;;18.50
15607;BMP180;7865;50.918;4.510;2023-05-07T18:09:02;101319.00;;;18.30
15607;BMP180;7865;50.918;4.510;2023-05-07T18:14:04;101325.00;;;18.20
15607;BMP180;7865;50.918;4.510;2023-05-07T18:19:05;101339.00;;;18.00
15607;BMP180;7865;50.918;4.510;2023-05-07T18:24:07;101357.00;;;17.70
15607;BMP180;7865;50.918;4.510;2023-05-07T18:29:09;101362.00;;;17.50
15607;BMP180;7865;50.918;4.510;2023-05-07T18:34:11;101368.00;;;17.30
15607;BMP180;7865;50.918;4.510;2023-05-07T18:39:14;101365.00;;;17.20
15607;BMP180;7865;50.918;4.510;2023-05-07T18:44:15;101365.00;;;17.10
15607;BMP180;7865;50.918;4.510;2023-05-07T18:49:17;101368.00;;;17.00
15607;BMP180;7865;50.918;4.510;2023-05-07T18:54:18;101379.00;;;16.80
15607;BMP180;7865;50.918;4.510;2023-05-07T18:59:19;101383.00;;;16.70
15607;BMP180;7865;50.918;4.510;2023-05-07T19:04:20;101384.00;;;16.60
15607;BMP180;7865;50.918;4.510;2023-05-07T19:09:22;101381.00;;;16.40
15607;BMP180;7865;50.918;4.510;2023-05-07T19:14:23;101386.00;;;16.30
15607;BMP180;7865;50.918;4.510;2023-05-07T19:19:25;101400.00;;;16.20
15607;BMP180;7865;50.918;4.510;2023-05-07T19:24:28;101404.00;;;16.00
15607;BMP180;7865;50.918;4.510;2023-05-07T19:29:30;101418.00;;;16.00
15607;BMP180;7865;50.918;4.510;2023-05-07T19:34:31;101422.00;;;16.00
15607;BMP180;7865;50.918;4.510;2023-05-07T19:39:32;101431.00;;;16.10
15607;BMP180;7865;50.918;4.510;2023-05-07T19:44:34;101433.00;;;16.10
15607;BMP180;7865;50.918;4.510;2023-05-07T19:49:35;101446.00;;;16.10
15607;BMP180;7865;50.918;4.510;2023-05-07T19:54:36;101446.00;;;16.20
15607;BMP180;7865;50.918;4.510;2023-05-07T19:59:38;101455.00;;;16.10
15607;BMP180;7865;50.918;4.510;2023-05-07T20:04:40;101458.00;;;16.10
15607;BMP180;7865;50.918;4.510;2023-05-07T20:09:41;101451.00;;;15.90
15607;BMP180;7865;50.918;4.510;2023-05-07T20:14:42;101454.00;;;15.80
15607;BMP180;7865;50.918;4.510;2023-05-07T20:19:43;101460.00;;;15.70
15607;BMP180;7865;50.918;4.510;2023-05-07T20:24:45;101455.00;;;15.60
15607;BMP180;7865;50.918;4.510;2023-05-07T20:29:47;101463.00;;;15.60
15607;BMP180;7865;50.918;4.510;2023-05-07T20:34:48;101460.00;;;15.60
15607;BMP180;7865;50.918;4.510;2023-05-07T20:39:49;101468.00;;;15.60
15607;BMP180;7865;50.918;4.510;2023-05-07T20:44:51;101473.00;;;15.60
15607;BMP180;7865;50.918;4.510;2023-05-07T20:49:53;101466.00;;;15.50
15607;BMP180;7865;50.918;4.510;2023-05-07T20:54:54;101463.00;;;15.50
15607;BMP180;7865;50.918;4.510;2023-05-07T20:59:56;101467.00;;;15.50
15607;BMP180;7865;50.918;4.510;2023-05-07T21:04:57;101467.00;;;15.50
15607;BMP180;7865;50.918;4.510;2023-05-07T21:09:59;101479.00;;;15.50
15607;BMP180;7865;50.918;4.510;2023-05-07T21:15:00;101475.00;;;15.50
15607;BMP180;7865;50.918;4.510;2023-05-07T21:20:02;101483.00;;;15.50
15607;BMP180;7865;50.918;4.510;2023-05-07T21:25:04;101476.00;;;15.50
15607;BMP180;7865;50.918;4.510;2023-05-07T21:30:06;101478.00;;;15.50
15607;BMP180;7865;50.918;4.510;2023-05-07T21:35:08;101486.00;;;15.50
15607;BMP180;7865;50.918;4.510;2023-05-07T21:40:10;101480.00;;;15.50
15607;BMP180;7865;50.918;4.510;2023-05-07T21:45:12;101480.00;;;15.50
15607;BMP180;7865;50.918;4.510;2023-05-07T21:50:13;101484.00;;;15.50
15607;BMP180;7865;50.918;4.510;2023-05-07T21:55:19;101478.00;;;15.40
15607;BMP180;7865;50.918;4.510;2023-05-07T22:00:20;101470.00;;;15.40
15607;BMP180;7865;50.918;4.510;2023-05-07T22:05:23;101475.00;;;15.30
15607;BMP180;7865;50.918;4.510;2023-05-07T22:10:24;101486.00;;;15.30
15607;BMP180;7865;50.918;4.510;2023-05-07T22:15:26;101479.00;;;15.20
15607;BMP180;7865;50.918;4.510;2023-05-07T22:20:27;101479.00;;;15.10
15607;BMP180;7865;50.918;4.510;2023-05-07T22:25:31;101480.00;;;15.10
15607;BMP180;7865;50.918;4.510;2023-05-07T22:30:34;101492.00;;;15.00
15607;BMP180;7865;50.918;4.510;2023-05-07T22:35:36;101493.00;;;15.00
15607;BMP180;7865;50.918;4.510;2023-05-07T22:40:37;101498.00;;;14.90
15607;BMP180;7865;50.918;4.510;2023-05-07T22:45:39;101486.00;;;14.80
15607;BMP180;7865;50.918;4.510;2023-05-07T22:50:40;101492.00;;;14.70
15607;BMP180;7865;50.918;4.510;2023-05-07T22:55:41;101484.00;;;14.60
15607;BMP180;7865;50.918;4.510;2023-05-07T23:00:43;101485.00;;;14.50
15607;BMP180;7865;50.918;4.510;2023-05-07T23:05:44;101484.00;;;14.40
15607;BMP180;7865;50.918;4.510;2023-05-07T23:10:46;101489.00;;;14.30
15607;BMP180;7865;50.918;4.510;2023-05-07T23:15:47;101483.00;;;14.20
15607;BMP180;7865;50.918;4.510;2023-05-07T23:20:49;101482.00;;;14.20
15607;BMP180;7865;50.918;4.510;2023-05-07T23:25:51;101492.00;;;14.10
15607;BMP180;7865;50.918;4.510;2023-05-07T23:30:53;101486.00;;;14.10
15607;BMP180;7865;50.918;4.510;2023-05-07T23:36:01;101481.00;;;14.10
15607;BMP180;7865;50.918;4.510;2023-05-07T23:41:03;101485.00;;;14.10
15607;BMP180;7865;50.918;4.510;2023-05-07T23:46:04;101477.00;;;14.10
15607;BMP180;7865;50.918;4.510;2023-05-07T23:51:06;101490.00;;;14.20
15607;BMP180;7865;50.918;4.510;2023-05-07T23:56:07;101487.00;;;14.30
